sensor_id;sensor_type;location;lat;lon;timestamp;pressure;altitude;pressure_sealevel;temperature;humidity
2711;BME280;20721;47.402;8.550;2023-07-29T00:00:39;95798;;;20.26;67.29
2711;BME280;20721;47.402;8.550;2023-07-29T00:02:39;95794;;;20.27;67.22
2711;BME280;20721;47.402;8.550;2023-07-29T00:06:40;95792;;;20.25;66.98
2711;BME280;20721;47.402;8.550;2023-07-29T00:08:39;95790;;;20.19;67.29
2711;BME280;20721;47.402;8.550;2023-07-29T00:10:39;95796;;;20.15;67.45
2711;BME280;20721;47.402;8.550;2023-07-29T00:13:39;95795;;;20.16;67.42
2711;BME280;20721;47.402;8.550;2023-07-29T00:15:39;95790;;;20.15;67.44
2711;BME280;20721;47.402;8.550;2023-07-29T00:17:39;95784;;;20.14;67.59
2711;BME280;20721;47.402;8.550;2023-07-29T00:19:39;95781;;;19.97;67.76
2711;BME280;20721;47.402;8.550;2023-07-29T00:21:41;95780;;;19.89;68.09
2711;BME280;20721;47.402;8.550;2023-07-29T00:23:39;95777;;;19.90;68.10
2711;BME280;20721;47.402;8.550;2023-07-29T00:25:39;95774;;;19.92;68.12
2711;BME280;20721;47.402;8.550;2023-07-29T00:29:39;95774;;;19.91;67.82
2711;BME280;20721;47.402;8.550;2023-07-29T00:31:39;95773;;;19.90;67.81
2711;BME280;20721;47.402;8.550;2023-07-29T00:34:39;95767;;;19.92;67.99
2711;BME280;20721;47.402;8.550;2023-07-29T00:38:39;95768;;;19.93;67.87
2711;BME280;20721;47.402;8.550;2023-07-29T00:41:39;95758;;;19.95;67.78
2711;BME280;20721;47.402;8.550;2023-07-29T00:43:39;95760;;;19.97;67.55
2711;BME280;20721;47.402;8.550;2023-07-29T00:45:39;95765;;;20.00;67.84
2711;BME280;20721;47.402;8.550;2023-07-29T00:47:39;95766;;;20.06;67.72
2711;BME280;20721;47.402;8.550;2023-07-29T00:49:39;95761;;;20.08;67.69
2711;BME280;20721;47.402;8.550;2023-07-29T00:51:39;95756;;;20.08;67.72
2711;BME280;20721;47.402;8.550;2023-07-29T00:53:39;95758;;;20.06;67.69
2711;BME280;20721;47.402;8.550;2023-07-29T00:55:39;95755;;;20.03;67.75
2711;BME280;20721;47.402;8.550;2023-07-29T00:58:39;95754;;;20.00;67.77
2711;BME280;20721;47.402;8.550;2023-07-29T01:01:39;95753;;;20.01;67.73
2711;BME280;20721;47.402;8.550;2023-07-29T01:03:40;95754;;;20.02;67.87
2711;BME280;20721;47.402;8.550;2023-07-29T01:07:57;95758;;;20.04;67.96
2711;BME280;20721;47.402;8.550;2023-07-29T01:12:42;95752;;;20.05;67.94
2711;BME280;20721;47.402;8.550;2023-07-29T01:17:42;95753;;;20.07;67.90
2711;BME280;20721;47.402;8.550;2023-07-29T01:19:47;95750;;;20.09;67.82
2711;BME280;20721;47.402;8.550;2023-07-29T01:21:39;95748;;;20.07;67.65
2711;BME280;20721;47.402;8.550;2023-07-29T01:23:39;95754;;;20.03;67.68
2711;BME280;20721;47.402;8.550;2023-07-29T01:25:39;95751;;;20.03;67.78
2711;BME280;20721;47.402;8.550;2023-07-29T01:27:41;95752;;;20.06;67.87
2711;BME280;20721;47.402;8.550;2023-07-29T01:29:40;95749;;;20.07;67.85
2711;BME280;20721;47.402;8.550;2023-07-29T01:34:44;95765;;;20.07;68.06
2711;BME280;20721;47.402;8.550;2023-07-29T01:36:40;95761;;;20.07;68.12
2711;BME280;20721;47.402;8.550;2023-07-29T01:38:41;95755;;;20.08;68.17
2711;BME280;20721;47.402;8.550;2023-07-29T01:40:39;95753;;;19.98;68.29
2711;BME280;20721;47.402;8.550;2023-07-29T01:42:39;95759;;;19.88;68.67
2711;BME280;20721;47.402;8.550;2023-07-29T01:44:42;95762;;;19.90;68.81
2711;BME280;20721;47.402;8.550;2023-07-29T01:46:39;95770;;;19.96;68.83
2711;BME280;20721;47.402;8.550;2023-07-29T01:48:40;95775;;;20.03;68.81
2711;BME280;20721;47.402;8.550;2023-07-29T01:50:40;95779;;;20.09;68.81
2711;BME280;20721;47.402;8.550;2023-07-29T01:52:40;95783;;;20.13;68.87
2711;BME280;20721;47.402;8.550;2023-07-29T01:54:39;95776;;;20.17;68.69
2711;BME280;20721;47.402;8.550;2023-07-29T01:56:39;95768;;;20.18;68.65
2711;BME280;20721;47.402;8.550;2023-07-29T01:58:39;95760;;;20.14;68.80
2711;BME280;20721;47.402;8.550;2023-07-29T02:00:40;95762;;;20.11;68.80
2711;BME280;20721;47.402;8.550;2023-07-29T02:02:40;95759;;;20.00;68.98
2711;BME280;20721;47.402;8.550;2023-07-29T02:04:40;95754;;;19.96;69.24
2711;BME280;20721;47.402;8.550;2023-07-29T02:06:40;95756;;;19.99;69.24
2711;BME280;20721;47.402;8.550;2023-07-29T02:08:40;95753;;;20.05;69.12
2711;BME280;20721;47.402;8.550;2023-07-29T02:10:40;95745;;;20.09;68.88
2711;BME280;20721;47.402;8.550;2023-07-29T02:12:40;95739;;;20.09;68.75
2711;BME280;20721;47.402;8.550;2023-07-29T02:14:40;95732;;;20.07;68.73
2711;BME280;20721;47.402;8.550;2023-07-29T02:16:41;95728;;;19.89;69.21
2711;BME280;20721;47.402;8.550;2023-07-29T02:18:40;95721;;;19.70;69.84
2711;BME280;20721;47.402;8.550;2023-07-29T02:20:40;95727;;;19.62;70.22
2711;BME280;20721;47.402;8.550;2023-07-29T02:22:40;95723;;;19.55;70.50
2711;BME280;20721;47.402;8.550;2023-07-29T02:24:40;95731;;;19.57;70.44
2711;BME280;20721;47.402;8.550;2023-07-29T02:28:40;95729;;;19.72;69.94
2711;BME280;20721;47.402;8.550;2023-07-29T02:30:40;95728;;;19.76;69.55
2711;BME280;20721;47.402;8.550;2023-07-29T02:32:40;95725;;;19.81;69.45
2711;BME280;20721;47.402;8.550;2023-07-29T02:34:40;95717;;;19.84;69.28
2711;BME280;20721;47.402;8.550;2023-07-29T02:37:40;95724;;;19.87;69.06
2711;BME280;20721;47.402;8.550;2023-07-29T02:39:40;95727;;;19.89;69.10
2711;BME280;20721;47.402;8.550;2023-07-29T02:42:40;95744;;;19.91;69.03
2711;BME280;20721;47.402;8.550;2023-07-29T02:45:40;95748;;;19.93;68.97
2711;BME280;20721;47.402;8.550;2023-07-29T02:47:40;95757;;;19.96;69.04
2711;BME280;20721;47.402;8.550;2023-07-29T02:49:40;95768;;;19.98;68.78
2711;BME280;20721;47.402;8.550;2023-07-29T02:52:40;95783;;;19.95;69.07
2711;BME280;20721;47.402;8.550;2023-07-29T02:54:40;95787;;;19.71;69.73
2711;BME280;20721;47.402;8.550;2023-07-29T02:56:40;95779;;;19.62;70.41
2711;BME280;20721;47.402;8.550;2023-07-29T02:58:40;95757;;;19.44;71.34
2711;BME280;20721;47.402;8.550;2023-07-29T03:00:43;95742;;;19.50;71.37
2711;BME280;20721;47.402;8.550;2023-07-29T03:02:40;95739;;;19.65;70.98
2711;BME280;20721;47.402;8.550;2023-07-29T03:04:40;95748;;;19.77;70.68
2711;BME280;20721;47.402;8.550;2023-07-29T03:06:40;95755;;;19.89;70.28
2711;BME280;20721;47.402;8.550;2023-07-29T03:08:40;95751;;;19.95;70.14
2711;BME280;20721;47.402;8.550;2023-07-29T03:10:40;95755;;;19.99;69.87
2711;BME280;20721;47.402;8.550;2023-07-29T03:12:40;95746;;;20.04;69.71
2711;BME280;20721;47.402;8.550;2023-07-29T03:14:41;95743;;;20.08;69.58
2711;BME280;20721;47.402;8.550;2023-07-29T03:16:40;95745;;;20.08;69.45
2711;BME280;20721;47.402;8.550;2023-07-29T03:18:40;95747;;;19.96;69.74
2711;BME280;20721;47.402;8.550;2023-07-29T03:20:40;95752;;;19.90;70.04
2711;BME280;20721;47.402;8.550;2023-07-29T03:22:40;95757;;;19.90;70.04
2711;BME280;20721;47.402;8.550;2023-07-29T03:24:40;95754;;;19.94;70.03
2711;BME280;20721;47.402;8.550;2023-07-29T03:26:41;95764;;;19.99;69.87
2711;BME280;20721;47.402;8.550;2023-07-29T03:29:40;95772;;;20.05;69.67
2711;BME280;20721;47.402;8.550;2023-07-29T03:31:40;95772;;;19.96;69.85
2711;BME280;20721;47.402;8.550;2023-07-29T03:33:40;95783;;;19.80;70.46
2711;BME280;20721;47.402;8.550;2023-07-29T03:35:40;95795;;;19.62;71.28
2711;BME280;20721;47.402;8.550;2023-07-29T03:37:40;95788;;;19.39;72.22
2711;BME280;20721;47.402;8.550;2023-07-29T03:40:40;95768;;;19.30;72.79
2711;BME280;20721;47.402;8.550;2023-07-29T03:42:40;95770;;;19.46;72.41
2711;BME280;20721;47.402;8.550;2023-07-29T03:44:40;95780;;;19.64;71.83
2711;BME280;20721;47.402;8.550;2023-07-29T03:46:40;95799;;;19.77;71.59
2711;BME280;20721;47.402;8.550;2023-07-29T03:48:40;95778;;;19.60;73.24
2711;BME280;20721;47.402;8.550;2023-07-29T03:50:40;95762;;;19.29;72.90
2711;BME280;20721;47.402;8.550;2023-07-29T03:52:40;95761;;;19.12;70.94
2711;BME280;20721;47.402;8.550;2023-07-29T03:54:40;95763;;;19.09;73.50
2711;BME280;20721;47.402;8.550;2023-07-29T03:56:41;95755;;;19.12;74.08
2711;BME280;20721;47.402;8.550;2023-07-29T03:58:40;95756;;;19.24;75.28
2711;BME280;20721;47.402;8.550;2023-07-29T04:00:40;95757;;;19.44;74.42
2711;BME280;20721;47.402;8.550;2023-07-29T04:02:41;95769;;;19.59;74.16
2711;BME280;20721;47.402;8.550;2023-07-29T04:04:42;95774;;;19.68;73.80
2711;BME280;20721;47.402;8.550;2023-07-29T04:06:40;95772;;;19.81;74.32
2711;BME280;20721;47.402;8.550;2023-07-29T04:08:41;95776;;;19.90;74.22
2711;BME280;20721;47.402;8.550;2023-07-29T04:10:40;95776;;;19.97;74.75
2711;BME280;20721;47.402;8.550;2023-07-29T04:12:40;95774;;;20.02;74.72
2711;BME280;20721;47.402;8.550;2023-07-29T04:15:40;95776;;;20.03;74.50
2711;BME280;20721;47.402;8.550;2023-07-29T04:17:40;95774;;;20.03;73.72
2711;BME280;20721;47.402;8.550;2023-07-29T04:19:40;95773;;;19.98;72.58
2711;BME280;20721;47.402;8.550;2023-07-29T04:21:40;95774;;;19.91;72.39
2711;BME280;20721;47.402;8.550;2023-07-29T04:23:40;95775;;;19.88;74.03
2711;BME280;20721;47.402;8.550;2023-07-29T04:25:40;95773;;;19.86;72.74
2711;BME280;20721;47.402;8.550;2023-07-29T04:27:40;95780;;;19.67;72.61
2711;BME280;20721;47.402;8.550;2023-07-29T04:29:40;95786;;;19.58;73.52
2711;BME280;20721;47.402;8.550;2023-07-29T04:31:40;95791;;;19.59;74.01
2711;BME280;20721;47.402;8.550;2023-07-29T04:33:40;95797;;;19.64;74.27
2711;BME280;20721;47.402;8.550;2023-07-29T04:35:40;95794;;;19.65;72.71
2711;BME280;20721;47.402;8.550;2023-07-29T04:37:40;95786;;;19.63;74.47
2711;BME280;20721;47.402;8.550;2023-07-29T04:39:40;95784;;;19.70;74.17
2711;BME280;20721;47.402;8.550;2023-07-29T04:41:40;95782;;;19.77;74.78
2711;BME280;20721;47.402;8.550;2023-07-29T04:43:40;95792;;;19.83;73.67
2711;BME280;20721;47.402;8.550;2023-07-29T04:45:43;95788;;;19.81;72.66
2711;BME280;20721;47.402;8.550;2023-07-29T04:47:40;95786;;;19.85;74.02
2711;BME280;20721;47.402;8.550;2023-07-29T04:49:40;95781;;;19.90;73.55
2711;BME280;20721;47.402;8.550;2023-07-29T04:51:40;95775;;;19.95;73.30
2711;BME280;20721;47.402;8.550;2023-07-29T04:53:40;95772;;;19.96;71.96
2711;BME280;20721;47.402;8.550;2023-07-29T04:55:41;95773;;;19.88;72.56
2711;BME280;20721;47.402;8.550;2023-07-29T04:57:40;95771;;;19.96;73.51
2711;BME280;20721;47.402;8.550;2023-07-29T04:59:41;95767;;;19.99;71.79
2711;BME280;20721;47.402;8.550;2023-07-29T05:01:42;95767;;;20.07;72.32
2711;BME280;20721;47.402;8.550;2023-07-29T05:04:40;95770;;;20.11;70.52
2711;BME280;20721;47.402;8.550;2023-07-29T05:06:40;95777;;;20.17;71.82
2711;BME280;20721;47.402;8.550;2023-07-29T05:08:40;95784;;;20.27;69.54
2711;BME280;20721;47.402;8.550;2023-07-29T05:10:40;95793;;;20.38;70.04
2711;BME280;20721;47.402;8.550;2023-07-29T05:12:40;95796;;;20.46;70.12
2711;BME280;20721;47.402;8.550;2023-07-29T05:14:40;95801;;;20.53;70.32
2711;BME280;20721;47.402;8.550;2023-07-29T05:16:40;95804;;;20.60;68.92
2711;BME280;20721;47.402;8.550;2023-07-29T05:18:40;95804;;;20.48;68.40
2711;BME280;20721;47.402;8.550;2023-07-29T05:20:40;95797;;;20.24;69.33
2711;BME280;20721;47.402;8.550;2023-07-29T05:22:40;95796;;;20.23;69.86
2711;BME280;20721;47.402;8.550;2023-07-29T05:24:40;95797;;;20.18;69.94
2711;BME280;20721;47.402;8.550;2023-07-29T05:26:40;95801;;;20.13;70.29
2711;BME280;20721;47.402;8.550;2023-07-29T05:28:40;95795;;;20.07;70.48
2711;BME280;20721;47.402;8.550;2023-07-29T05:31:40;95809;;;20.05;71.43
2711;BME280;20721;47.402;8.550;2023-07-29T05:33:40;95809;;;20.09;71.15
2711;BME280;20721;47.402;8.550;2023-07-29T05:35:40;95807;;;20.22;71.47
2711;BME280;20721;47.402;8.550;2023-07-29T05:37:40;95806;;;20.30;70.05
2711;BME280;20721;47.402;8.550;2023-07-29T05:39:40;95810;;;20.22;69.18
2711;BME280;20721;47.402;8.550;2023-07-29T05:41:40;95807;;;20.24;69.78
2711;BME280;20721;47.402;8.550;2023-07-29T05:43:42;95806;;;20.27;69.70
2711;BME280;20721;47.402;8.550;2023-07-29T05:45:40;95809;;;20.38;69.46
2711;BME280;20721;47.402;8.550;2023-07-29T05:47:40;95811;;;20.53;68.84
2711;BME280;20721;47.402;8.550;2023-07-29T05:49:40;95809;;;20.60;69.13
2711;BME280;20721;47.402;8.550;2023-07-29T05:51:40;95811;;;20.70;69.81
2711;BME280;20721;47.402;8.550;2023-07-29T05:53:40;95811;;;20.86;69.31
2711;BME280;20721;47.402;8.550;2023-07-29T05:55:40;95818;;;21.04;69.11
2711;BME280;20721;47.402;8.550;2023-07-29T05:57:44;95818;;;21.10;67.76
2711;BME280;20721;47.402;8.550;2023-07-29T05:59:40;95821;;;21.15;69.00
2711;BME280;20721;47.402;8.550;2023-07-29T06:01:40;95816;;;21.07;67.08
2711;BME280;20721;47.402;8.550;2023-07-29T06:03:40;95814;;;21.15;68.10
2711;BME280;20721;47.402;8.550;2023-07-29T06:05:40;95814;;;21.23;68.03
2711;BME280;20721;47.402;8.550;2023-07-29T06:07:43;95810;;;21.34;66.93
2711;BME280;20721;47.402;8.550;2023-07-29T06:09:40;95811;;;21.48;66.98
2711;BME280;20721;47.402;8.550;2023-07-29T06:11:40;95810;;;21.58;65.21
2711;BME280;20721;47.402;8.550;2023-07-29T06:13:40;95814;;;21.77;66.02
2711;BME280;20721;47.402;8.550;2023-07-29T06:15:40;95819;;;21.75;62.52
2711;BME280;20721;47.402;8.550;2023-07-29T06:17:40;95818;;;21.77;64.54
2711;BME280;20721;47.402;8.550;2023-07-29T06:19:40;95819;;;21.78;64.53
2711;BME280;20721;47.402;8.550;2023-07-29T06:21:40;95818;;;21.72;64.41
2711;BME280;20721;47.402;8.550;2023-07-29T06:23:40;95816;;;21.45;65.04
2711;BME280;20721;47.402;8.550;2023-07-29T06:25:40;95815;;;21.31;64.52
2711;BME280;20721;47.402;8.550;2023-07-29T06:27:40;95814;;;21.03;65.83
2711;BME280;20721;47.402;8.550;2023-07-29T06:29:40;95813;;;20.96;65.98
2711;BME280;20721;47.402;8.550;2023-07-29T06:31:40;95813;;;21.08;66.02
2711;BME280;20721;47.402;8.550;2023-07-29T06:33:40;95811;;;21.21;65.79
2711;BME280;20721;47.402;8.550;2023-07-29T06:35:41;95810;;;21.29;64.73
2711;BME280;20721;47.402;8.550;2023-07-29T06:37:40;95814;;;21.51;64.21
2711;BME280;20721;47.402;8.550;2023-07-29T06:39:40;95815;;;21.67;64.85
2711;BME280;20721;47.402;8.550;2023-07-29T06:41:40;95816;;;21.82;65.37
2711;BME280;20721;47.402;8.550;2023-07-29T06:43:40;95823;;;21.95;64.35
2711;BME280;20721;47.402;8.550;2023-07-29T06:45:40;95822;;;22.14;65.01
2711;BME280;20721;47.402;8.550;2023-07-29T06:47:40;95815;;;21.86;64.23
2711;BME280;20721;47.402;8.550;2023-07-29T06:49:40;95814;;;21.82;64.56
2711;BME280;20721;47.402;8.550;2023-07-29T06:51:40;95809;;;21.90;65.08
2711;BME280;20721;47.402;8.550;2023-07-29T06:54:40;95804;;;21.78;64.50
2711;BME280;20721;47.402;8.550;2023-07-29T06:56:40;95804;;;21.78;64.36
2711;BME280;20721;47.402;8.550;2023-07-29T06:58:40;95812;;;21.90;64.66
2711;BME280;20721;47.402;8.550;2023-07-29T07:00:40;95824;;;22.12;64.42
2711;BME280;20721;47.402;8.550;2023-07-29T07:02:41;95825;;;22.38;63.99
2711;BME280;20721;47.402;8.550;2023-07-29T07:04:40;95813;;;22.59;63.90
2711;BME280;20721;47.402;8.550;2023-07-29T07:06:40;95808;;;22.64;62.60
2711;BME280;20721;47.402;8.550;2023-07-29T07:08:41;95805;;;22.48;62.78
2711;BME280;20721;47.402;8.550;2023-07-29T07:10:40;95806;;;22.27;63.44
2711;BME280;20721;47.402;8.550;2023-07-29T07:12:40;95806;;;22.14;64.09
2711;BME280;20721;47.402;8.550;2023-07-29T07:14:40;95804;;;22.10;63.83
2711;BME280;20721;47.402;8.550;2023-07-29T07:16:41;95804;;;22.36;63.29
2711;BME280;20721;47.402;8.550;2023-07-29T07:18:40;95800;;;22.57;63.66
2711;BME280;20721;47.402;8.550;2023-07-29T07:20:40;95800;;;22.74;63.40
2711;BME280;20721;47.402;8.550;2023-07-29T07:22:41;95805;;;23.00;62.89
2711;BME280;20721;47.402;8.550;2023-07-29T07:25:42;95798;;;23.08;61.88
2711;BME280;20721;47.402;8.550;2023-07-29T07:27:40;95802;;;23.00;61.22
2711;BME280;20721;47.402;8.550;2023-07-29T07:29:40;95796;;;23.16;62.18
2711;BME280;20721;47.402;8.550;2023-07-29T07:31:40;95798;;;23.21;60.93
2711;BME280;20721;47.402;8.550;2023-07-29T07:33:40;95792;;;23.23;60.34
2711;BME280;20721;47.402;8.550;2023-07-29T07:35:42;95792;;;23.37;60.55
2711;BME280;20721;47.402;8.550;2023-07-29T07:37:40;95790;;;23.53;60.04
2711;BME280;20721;47.402;8.550;2023-07-29T07:39:40;95787;;;23.83;59.92
2711;BME280;20721;47.402;8.550;2023-07-29T07:41:41;95786;;;24.22;58.95
2711;BME280;20721;47.402;8.550;2023-07-29T07:43:40;95777;;;24.46;57.35
2711;BME280;20721;47.402;8.550;2023-07-29T07:45:41;95778;;;24.77;56.68
2711;BME280;20721;47.402;8.550;2023-07-29T07:47:40;95776;;;25.01;55.89
2711;BME280;20721;47.402;8.550;2023-07-29T07:49:40;95772;;;25.20;54.99
2711;BME280;20721;47.402;8.550;2023-07-29T07:51:40;95776;;;25.48;54.32
2711;BME280;20721;47.402;8.550;2023-07-29T07:53:40;95782;;;25.61;54.46
2711;BME280;20721;47.402;8.550;2023-07-29T07:55:40;95782;;;25.79;54.23
2711;BME280;20721;47.402;8.550;2023-07-29T07:57:40;95786;;;26.08;52.65
2711;BME280;20721;47.402;8.550;2023-07-29T07:59:40;95786;;;26.10;52.73
2711;BME280;20721;47.402;8.550;2023-07-29T08:01:41;95791;;;26.16;53.06
2711;BME280;20721;47.402;8.550;2023-07-29T08:03:41;95791;;;26.25;52.42
2711;BME280;20721;47.402;8.550;2023-07-29T08:05:40;95783;;;26.34;52.18
2711;BME280;20721;47.402;8.550;2023-07-29T08:07:40;95790;;;26.55;52.21
2711;BME280;20721;47.402;8.550;2023-07-29T08:09:40;95791;;;26.78;50.69
2711;BME280;20721;47.402;8.550;2023-07-29T08:11:40;95785;;;27.12;50.77
2711;BME280;20721;47.402;8.550;2023-07-29T08:13:40;95790;;;27.57;50.38
2711;BME280;20721;47.402;8.550;2023-07-29T08:15:41;95787;;;27.99;50.00
2711;BME280;20721;47.402;8.550;2023-07-29T08:17:41;95784;;;28.00;49.12
2711;BME280;20721;47.402;8.550;2023-07-29T08:19:40;95784;;;28.11;49.26
2711;BME280;20721;47.402;8.550;2023-07-29T08:21:41;95782;;;28.26;48.84
2711;BME280;20721;47.402;8.550;2023-07-29T08:23:41;95774;;;28.55;47.42
2711;BME280;20721;47.402;8.550;2023-07-29T08:25:40;95770;;;28.76;47.58
2711;BME280;20721;47.402;8.550;2023-07-29T08:27:40;95771;;;28.42;46.28
2711;BME280;20721;47.402;8.550;2023-07-29T08:29:41;95770;;;28.43;47.48
2711;BME280;20721;47.402;8.550;2023-07-29T08:31:41;95775;;;28.45;47.00
2711;BME280;20721;47.402;8.550;2023-07-29T08:33:40;95778;;;28.21;46.67
2711;BME280;20721;47.402;8.550;2023-07-29T08:35:40;95774;;;28.33;47.68
2711;BME280;20721;47.402;8.550;2023-07-29T08:37:41;95780;;;28.41;47.64
2711;BME280;20721;47.402;8.550;2023-07-29T08:39:41;95776;;;28.52;45.90
2711;BME280;20721;47.402;8.550;2023-07-29T08:41:43;95776;;;28.43;46.28
2711;BME280;20721;47.402;8.550;2023-07-29T08:43:43;95775;;;28.54;46.47
2711;BME280;20721;47.402;8.550;2023-07-29T08:45:41;95772;;;28.92;46.02
2711;BME280;20721;47.402;8.550;2023-07-29T08:47:41;95778;;;29.27;45.93
2711;BME280;20721;47.402;8.550;2023-07-29T08:49:41;95777;;;29.40;45.06
2711;BME280;20721;47.402;8.550;2023-07-29T08:51:41;95786;;;29.79;44.74
2711;BME280;20721;47.402;8.550;2023-07-29T08:53:41;95782;;;30.12;43.49
2711;BME280;20721;47.402;8.550;2023-07-29T08:55:41;95786;;;30.38;43.42
2711;BME280;20721;47.402;8.550;2023-07-29T08:57:41;95788;;;30.47;42.75
2711;BME280;20721;47.402;8.550;2023-07-29T08:59:41;95780;;;30.51;41.96
2711;BME280;20721;47.402;8.550;2023-07-29T09:01:41;95780;;;30.43;43.31
2711;BME280;20721;47.402;8.550;2023-07-29T09:03:41;95784;;;30.68;43.53
2711;BME280;20721;47.402;8.550;2023-07-29T09:05:41;95784;;;30.83;41.86
2711;BME280;20721;47.402;8.550;2023-07-29T09:07:41;95782;;;30.98;41.56
2711;BME280;20721;47.402;8.550;2023-07-29T09:09:41;95777;;;31.21;41.64
2711;BME280;20721;47.402;8.550;2023-07-29T09:11:41;95783;;;31.41;41.03
2711;BME280;20721;47.402;8.550;2023-07-29T09:13:41;95781;;;31.56;40.30
2711;BME280;20721;47.402;8.550;2023-07-29T09:15:42;95775;;;31.80;40.14
2711;BME280;20721;47.402;8.550;2023-07-29T09:17:41;95772;;;32.05;40.15
2711;BME280;20721;47.402;8.550;2023-07-29T09:19:41;95774;;;31.95;39.39
2711;BME280;20721;47.402;8.550;2023-07-29T09:21:41;95779;;;31.89;39.33
2711;BME280;20721;47.402;8.550;2023-07-29T09:23:41;95774;;;31.72;39.51
2711;BME280;20721;47.402;8.550;2023-07-29T09:25:41;95768;;;31.64;40.08
2711;BME280;20721;47.402;8.550;2023-07-29T09:27:41;95767;;;31.96;40.02
2711;BME280;20721;47.402;8.550;2023-07-29T09:29:41;95769;;;32.19;39.73
2711;BME280;20721;47.402;8.550;2023-07-29T09:31:41;95771;;;32.30;40.02
2711;BME280;20721;47.402;8.550;2023-07-29T09:33:41;95773;;;32.33;39.37
2711;BME280;20721;47.402;8.550;2023-07-29T09:35:41;95775;;;32.56;38.65
2711;BME280;20721;47.402;8.550;2023-07-29T09:37:41;95767;;;32.55;37.20
2711;BME280;20721;47.402;8.550;2023-07-29T09:39:43;95771;;;32.42;36.45
2711;BME280;20721;47.402;8.550;2023-07-29T09:41:41;95766;;;32.44;37.66
2711;BME280;20721;47.402;8.550;2023-07-29T09:43:41;95769;;;32.56;37.76
2711;BME280;20721;47.402;8.550;2023-07-29T09:45:41;95774;;;32.33;36.62
2711;BME280;20721;47.402;8.550;2023-07-29T09:47:45;95776;;;32.24;37.06
2711;BME280;20721;47.402;8.550;2023-07-29T09:49:42;95778;;;32.25;37.11
2711;BME280;20721;47.402;8.550;2023-07-29T09:51:41;95773;;;32.10;37.08
2711;BME280;20721;47.402;8.550;2023-07-29T09:53:42;95771;;;32.01;37.51
2711;BME280;20721;47.402;8.550;2023-07-29T09:55:45;95773;;;32.09;37.55
2711;BME280;20721;47.402;8.550;2023-07-29T09:59:41;95770;;;32.10;37.20
2711;BME280;20721;47.402;8.550;2023-07-29T10:01:41;95769;;;31.75;36.93
2711;BME280;20721;47.402;8.550;2023-07-29T10:03:41;95766;;;31.50;37.56
2711;BME280;20721;47.402;8.550;2023-07-29T10:05:41;95771;;;31.50;37.65
2711;BME280;20721;47.402;8.550;2023-07-29T10:07:41;95764;;;31.63;38.07
2711;BME280;20721;47.402;8.550;2023-07-29T10:09:41;95765;;;31.89;37.46
2711;BME280;20721;47.402;8.550;2023-07-29T10:11:41;95767;;;31.98;37.59
2711;BME280;20721;47.402;8.550;2023-07-29T10:13:42;95770;;;32.09;37.33
2711;BME280;20721;47.402;8.550;2023-07-29T10:15:41;95770;;;32.38;37.33
2711;BME280;20721;47.402;8.550;2023-07-29T10:17:41;95768;;;32.62;36.66
2711;BME280;20721;47.402;8.550;2023-07-29T10:19:43;95768;;;32.49;36.21
2711;BME280;20721;47.402;8.550;2023-07-29T10:21:41;95773;;;32.30;36.74
2711;BME280;20721;47.402;8.550;2023-07-29T10:23:42;95772;;;32.00;36.95
2711;BME280;20721;47.402;8.550;2023-07-29T10:25:43;95768;;;32.25;37.49
2711;BME280;20721;47.402;8.550;2023-07-29T10:27:47;95758;;;32.42;37.17
2711;BME280;20721;47.402;8.550;2023-07-29T10:29:41;95758;;;32.58;36.95
2711;BME280;20721;47.402;8.550;2023-07-29T10:31:42;95759;;;32.66;36.45
2711;BME280;20721;47.402;8.550;2023-07-29T10:33:41;95759;;;32.31;36.50
2711;BME280;20721;47.402;8.550;2023-07-29T10:35:41;95762;;;32.32;37.27
2711;BME280;20721;47.402;8.550;2023-07-29T10:37:41;95761;;;32.51;37.69
2711;BME280;20721;47.402;8.550;2023-07-29T10:39:51;95758;;;32.56;36.81
2711;BME280;20721;47.402;8.550;2023-07-29T10:43:41;95748;;;32.25;36.98
2711;BME280;20721;47.402;8.550;2023-07-29T10:45:41;95747;;;32.01;37.50
2711;BME280;20721;47.402;8.550;2023-07-29T10:47:41;95752;;;31.81;37.85
2711;BME280;20721;47.402;8.550;2023-07-29T10:49:41;95747;;;31.62;38.04
2711;BME280;20721;47.402;8.550;2023-07-29T10:51:41;95742;;;31.40;37.99
2711;BME280;20721;47.402;8.550;2023-07-29T10:53:41;95743;;;31.28;38.96
2711;BME280;20721;47.402;8.550;2023-07-29T10:55:43;95741;;;31.29;39.57
2711;BME280;20721;47.402;8.550;2023-07-29T10:57:41;95726;;;31.21;40.55
2711;BME280;20721;47.402;8.550;2023-07-29T10:59:42;95721;;;31.12;40.20
2711;BME280;20721;47.402;8.550;2023-07-29T11:01:50;95727;;;31.02;40.76
2711;BME280;20721;47.402;8.550;2023-07-29T11:03:41;95736;;;30.77;40.89
2711;BME280;20721;47.402;8.550;2023-07-29T11:07:45;95745;;;30.30;41.76
2711;BME280;20721;47.402;8.550;2023-07-29T11:11:41;95745;;;29.81;42.13
2711;BME280;20721;47.402;8.550;2023-07-29T11:13:41;95744;;;29.59;43.21
2711;BME280;20721;47.402;8.550;2023-07-29T11:15:41;95733;;;29.38;43.98
2711;BME280;20721;47.402;8.550;2023-07-29T11:17:43;95728;;;29.14;44.09
2711;BME280;20721;47.402;8.550;2023-07-29T11:19:41;95730;;;28.94;45.37
2711;BME280;20721;47.402;8.550;2023-07-29T11:21:41;95730;;;28.74;46.43
2711;BME280;20721;47.402;8.550;2023-07-29T11:23:41;95726;;;28.53;47.18
2711;BME280;20721;47.402;8.550;2023-07-29T11:25:41;95723;;;28.33;48.42
2711;BME280;20721;47.402;8.550;2023-07-29T11:27:41;95729;;;28.15;49.56
2711;BME280;20721;47.402;8.550;2023-07-29T11:29:41;95737;;;27.95;50.04
2711;BME280;20721;47.402;8.550;2023-07-29T11:31:41;95757;;;27.76;51.70
2711;BME280;20721;47.402;8.550;2023-07-29T11:33:41;95783;;;27.55;52.14
2711;BME280;20721;47.402;8.550;2023-07-29T11:35:41;95803;;;27.24;53.52
2711;BME280;20721;47.402;8.550;2023-07-29T11:37:43;95830;;;26.98;54.34
2711;BME280;20721;47.402;8.550;2023-07-29T11:39:41;95809;;;26.62;56.83
2711;BME280;20721;47.402;8.550;2023-07-29T11:41:42;95754;;;26.10;53.68
2711;BME280;20721;47.402;8.550;2023-07-29T11:43:41;95754;;;25.61;56.31
2711;BME280;20721;47.402;8.550;2023-07-29T11:45:52;95739;;;25.47;59.54
2711;BME280;20721;47.402;8.550;2023-07-29T11:47:42;95732;;;25.51;59.84
2711;BME280;20721;47.402;8.550;2023-07-29T11:49:41;95732;;;25.66;61.39
2711;BME280;20721;47.402;8.550;2023-07-29T11:51:41;95726;;;25.88;60.86
2711;BME280;20721;47.402;8.550;2023-07-29T11:53:41;95708;;;26.04;58.69